createdAt,value
2023-09-27T00:00:49.327Z,5.28
2023-09-27T00:03:33.666Z,5.18
2023-09-27T00:06:18.015Z,4.72
2023-09-27T00:09:02.172Z,4.43
2023-09-27T00:11:46.386Z,3.97
2023-09-27T00:14:30.592Z,4.03
2023-09-27T00:17:16.224Z,4.15
2023-09-27T00:20:00.917Z,3.67
2023-09-27T00:22:46.635Z,3.42
2023-09-27T00:25:31.256Z,3.47
2023-09-27T00:28:15.392Z,3.65
2023-09-27T00:30:59.629Z,3.58
2023-09-27T00:33:45.291Z,3.25
2023-09-27T00:36:29.719Z,3.53
2023-09-27T00:39:14.243Z,3.50
2023-09-27T00:41:58.726Z,3.08
2023-09-27T00:44:42.879Z,3.38
2023-09-27T00:47:27.136Z,4.03
2023-09-27T00:50:13.106Z,3.90
2023-09-27T00:52:57.402Z,3.17
2023-09-27T00:55:42.157Z,3.25
2023-09-27T00:58:27.017Z,3.70
2023-09-27T01:01:11.887Z,4.45
2023-09-27T01:03:56.352Z,4.10
2023-09-27T01:06:42.336Z,4.05
2023-09-27T01:09:26.430Z,3.78
2023-09-27T01:12:10.691Z,3.83
2023-09-27T01:14:54.850Z,5.35
2023-09-27T01:17:38.986Z,4.78
2023-09-27T01:20:23.233Z,4.53
2023-09-27T01:23:09.331Z,4.03
2023-09-27T01:26:00.332Z,4.78
2023-09-27T01:28:46.944Z,4.35
2023-09-27T01:31:31.303Z,3.65
2023-09-27T01:34:15.674Z,3.92
2023-09-27T01:37:00.498Z,4.60
2023-09-27T01:39:47.152Z,4.68
2023-09-27T01:42:31.298Z,4.18
2023-09-27T01:45:15.496Z,3.38
2023-09-27T01:48:00.120Z,3.90
2023-09-27T01:50:44.463Z,4.10
2023-09-27T01:53:28.608Z,4.03
2023-09-27T01:56:15.278Z,4.10
2023-09-27T01:58:59.435Z,3.90
2023-09-27T02:01:43.825Z,4.30
2023-09-27T02:04:28.027Z,3.83
2023-09-27T02:07:12.388Z,4.20
2023-09-27T02:09:56.639Z,4.88
2023-09-27T02:12:42.707Z,4.40
2023-09-27T02:15:27.156Z,4.97
2023-09-27T02:18:13.087Z,3.92
2023-09-27T02:20:58.113Z,4.13
2023-09-27T02:24:02.208Z,4.05
2023-09-27T02:26:46.453Z,5.00
2023-09-27T02:29:32.506Z,5.32
2023-09-27T02:32:16.646Z,4.35
2023-09-27T02:35:00.791Z,5.10
2023-09-27T02:37:46.568Z,4.95
2023-09-27T02:40:30.702Z,4.82
2023-09-27T02:43:14.710Z,4.57
2023-09-27T02:46:00.361Z,3.92
2023-09-27T02:48:44.752Z,4.57
2023-09-27T02:51:29.607Z,6.10
2023-09-27T02:54:15.407Z,5.05
2023-09-27T02:56:59.496Z,5.85
2023-09-27T02:59:43.844Z,5.68
2023-09-27T03:02:29.831Z,4.93
2023-09-27T03:05:14.315Z,5.68
2023-09-27T03:07:58.766Z,4.68
2023-09-27T03:10:43.364Z,4.30
2023-09-27T03:13:27.612Z,4.20
2023-09-27T03:16:12.100Z,6.78
2023-09-27T03:18:59.633Z,4.55
2023-09-27T03:21:43.775Z,4.72
2023-09-27T03:24:28.140Z,4.10
2023-09-27T03:27:12.411Z,4.35
2023-09-27T03:29:56.585Z,4.57
2023-09-27T03:32:40.820Z,5.22
2023-09-27T03:35:26.690Z,5.03
2023-09-27T03:38:11.158Z,5.50
2023-09-27T03:40:55.372Z,4.22
2023-09-27T03:43:40.027Z,4.78
2023-09-27T03:46:24.535Z,4.53
2023-09-27T03:49:08.820Z,4.80
2023-09-27T03:51:54.592Z,4.38
2023-09-27T03:54:39.075Z,5.10
2023-09-27T03:57:23.430Z,6.65
2023-09-27T04:00:10.520Z,6.45
2023-09-27T04:02:57.095Z,5.60
2023-09-27T04:05:41.871Z,6.97
2023-09-27T04:08:28.091Z,5.25
2023-09-27T04:11:13.030Z,5.43
2023-09-27T04:13:57.381Z,4.95
2023-09-27T04:16:41.572Z,4.72
2023-09-27T04:19:25.783Z,5.65
2023-09-27T04:22:10.095Z,5.65
2023-09-27T04:24:56.012Z,5.95
2023-09-27T04:27:40.231Z,4.60
2023-09-27T04:30:25.981Z,5.90
2023-09-27T04:33:10.448Z,5.05
2023-09-27T04:35:54.702Z,5.35
2023-09-27T04:38:39.156Z,5.82
2023-09-27T04:41:24.706Z,6.57
2023-09-27T04:44:09.181Z,5.68
2023-09-27T04:46:53.604Z,7.05
2023-09-27T04:49:37.951Z,5.95
2023-09-27T04:52:22.819Z,5.95
2023-09-27T04:55:08.683Z,7.32
2023-09-27T04:57:55.827Z,6.22
2023-09-27T05:00:40.482Z,5.82
2023-09-27T05:03:24.823Z,6.95
2023-09-27T05:06:09.223Z,6.97
2023-09-27T05:08:53.853Z,6.10
2023-09-27T05:11:38.231Z,6.43
2023-09-27T05:14:24.201Z,6.18
2023-09-27T05:17:08.506Z,6.05
2023-09-27T05:19:53.825Z,6.28
2023-09-27T05:22:37.976Z,6.07
2023-09-27T05:25:24.214Z,6.20
2023-09-27T05:28:08.776Z,6.38
2023-09-27T05:30:54.277Z,5.90
2023-09-27T05:33:38.576Z,5.35
2023-09-27T05:36:22.772Z,6.25
2023-09-27T05:39:09.440Z,5.68
2023-09-27T05:41:53.872Z,5.63
2023-09-27T05:44:38.085Z,6.00
2023-09-27T05:47:25.846Z,5.95
2023-09-27T05:50:12.700Z,4.82
2023-09-27T05:52:57.411Z,5.53
2023-09-27T05:55:42.751Z,5.15
2023-09-27T05:58:26.754Z,5.15
2023-09-27T06:01:11.800Z,4.90
2023-09-27T06:03:57.548Z,5.43
2023-09-27T06:06:41.435Z,4.80
2023-09-27T06:09:26.617Z,5.00
2023-09-27T06:12:11.598Z,5.15
2023-09-27T06:14:56.279Z,5.50
2023-09-27T06:17:40.423Z,4.75
2023-09-27T06:20:31.408Z,4.55
2023-09-27T06:23:16.015Z,4.78
2023-09-27T06:26:00.110Z,5.15
2023-09-27T06:28:44.115Z,5.20
2023-09-27T06:31:28.693Z,5.97
2023-09-27T06:34:12.546Z,4.95
2023-09-27T06:36:57.942Z,5.32
2023-09-27T06:39:42.437Z,3.97
2023-09-27T06:42:26.440Z,5.03
2023-09-27T06:45:11.592Z,5.43
2023-09-27T06:47:57.515Z,4.10
2023-09-27T06:50:43.572Z,5.20
2023-09-27T06:53:33.104Z,4.45
2023-09-27T06:56:17.653Z,4.97
2023-09-27T06:59:02.049Z,4.85
2023-09-27T07:01:46.109Z,4.63
2023-09-27T07:04:29.953Z,4.53
2023-09-27T07:07:14.747Z,4.47
2023-09-27T07:10:00.166Z,3.75
2023-09-27T07:12:44.374Z,3.92
2023-09-27T07:15:28.529Z,3.38
2023-09-27T07:18:12.526Z,4.63
2023-09-27T07:20:56.818Z,4.00
2023-09-27T07:23:40.840Z,3.42
2023-09-27T07:26:26.363Z,3.83
2023-09-27T07:29:10.916Z,4.07
2023-09-27T07:31:54.881Z,3.15
2023-09-27T07:34:39.059Z,3.55
2023-09-27T07:37:23.066Z,2.65
2023-09-27T07:40:11.003Z,3.00
2023-09-27T07:42:56.535Z,4.20
2023-09-27T07:45:43.523Z,3.13
2023-09-27T07:48:27.733Z,3.30
2023-09-27T07:51:15.706Z,4.32
2023-09-27T07:53:59.768Z,3.40
2023-09-27T07:56:45.207Z,2.88
2023-09-27T07:59:32.514Z,3.47
2023-09-27T08:02:16.732Z,3.70
2023-09-27T08:05:01.015Z,4.32
2023-09-27T08:07:46.847Z,3.75
2023-09-27T08:10:32.048Z,2.40
2023-09-27T08:13:17.519Z,3.08
2023-09-27T08:16:05.163Z,2.28
2023-09-27T08:18:49.442Z,2.22
2023-09-27T08:21:33.566Z,2.35
2023-09-27T08:24:18.661Z,2.40
2023-09-27T08:27:03.251Z,2.15
2023-09-27T08:29:47.816Z,2.28
2023-09-27T08:32:33.614Z,2.47
2023-09-27T08:35:18.470Z,1.75
2023-09-27T08:38:02.623Z,2.10
2023-09-27T08:40:48.400Z,2.25
2023-09-27T08:43:34.618Z,2.58
2023-09-27T08:46:20.122Z,1.83
2023-09-27T08:49:06.103Z,2.05
2023-09-27T08:51:51.432Z,2.20
2023-09-27T08:54:35.464Z,2.88
2023-09-27T08:57:19.954Z,2.85
2023-09-27T09:00:08.258Z,1.90
2023-09-27T09:02:59.585Z,2.30
2023-09-27T09:05:46.784Z,1.88
2023-09-27T09:08:43.370Z,2.70
2023-09-27T09:11:28.546Z,2.15
2023-09-27T09:14:12.564Z,2.47
2023-09-27T09:16:56.883Z,2.28
2023-09-27T09:19:44.818Z,2.30
2023-09-27T09:22:31.909Z,2.30
2023-09-27T09:25:15.867Z,2.17
2023-09-27T09:28:08.894Z,2.13
2023-09-27T09:31:05.414Z,1.85
2023-09-27T09:34:04.209Z,1.90
2023-09-27T09:36:52.328Z,2.83
2023-09-27T09:39:38.606Z,1.98
2023-09-27T09:42:34.385Z,2.35
2023-09-27T09:45:19.131Z,2.10
2023-09-27T09:48:04.180Z,1.90
2023-09-27T09:50:50.909Z,2.35
2023-09-27T09:53:40.115Z,2.20
2023-09-27T09:56:33.199Z,2.10
2023-09-27T09:59:27.296Z,2.13
2023-09-27T10:02:21.637Z,1.95
2023-09-27T10:05:09.153Z,2.20
2023-09-27T10:07:54.051Z,2.03
2023-09-27T10:10:38.941Z,2.50
2023-09-27T10:13:24.982Z,2.10
2023-09-27T10:16:11.375Z,1.90
2023-09-27T10:18:57.387Z,1.65
2023-09-27T10:22:05.847Z,2.25
2023-09-27T10:24:50.655Z,2.33
2023-09-27T10:28:09.216Z,2.22
2023-09-27T10:31:13.468Z,1.70
2023-09-27T10:33:57.705Z,1.85
2023-09-27T10:36:59.685Z,1.75
2023-09-27T10:40:20.530Z,1.90
2023-09-27T10:43:05.495Z,1.80
2023-09-27T10:45:57.479Z,1.58
2023-09-27T10:48:44.668Z,1.48
2023-09-27T10:51:29.099Z,1.75
2023-09-27T10:54:13.461Z,1.40
2023-09-27T10:56:57.770Z,2.00
2023-09-27T10:59:42.689Z,2.05
2023-09-27T11:02:31.082Z,1.80
2023-09-27T11:05:16.728Z,2.15
2023-09-27T11:08:00.892Z,1.77
2023-09-27T11:10:45.008Z,1.70
2023-09-27T11:13:31.030Z,1.83
2023-09-27T11:16:16.907Z,1.80
2023-09-27T11:19:01.101Z,2.22
2023-09-27T11:21:47.156Z,2.40
2023-09-27T11:24:39.861Z,1.85
2023-09-27T11:27:24.279Z,1.90
2023-09-27T11:30:11.255Z,2.05
2023-09-27T11:32:55.300Z,2.00
2023-09-27T11:35:48.962Z,2.78
2023-09-27T11:38:34.381Z,1.88
2023-09-27T11:41:20.938Z,1.58
2023-09-27T11:44:17.925Z,2.10
2023-09-27T11:47:09.121Z,1.95
2023-09-27T11:49:53.621Z,2.13
2023-09-27T11:52:37.659Z,1.83
2023-09-27T11:55:23.074Z,1.90
2023-09-27T11:58:07.063Z,2.33
2023-09-27T12:00:50.989Z,2.08
2023-09-27T12:03:35.327Z,1.52
2023-09-27T12:06:19.757Z,2.15
2023-09-27T12:09:06.616Z,2.05
2023-09-27T12:11:52.170Z,1.85
2023-09-27T12:14:36.644Z,2.13
2023-09-27T12:17:21.141Z,2.05
2023-09-27T12:20:06.483Z,1.88
2023-09-27T12:22:51.601Z,2.33
2023-09-27T12:25:35.745Z,1.98
2023-09-27T12:28:22.059Z,1.88
2023-09-27T12:31:07.276Z,1.88
2023-09-27T12:33:51.850Z,2.00
2023-09-27T12:36:36.109Z,1.80
2023-09-27T12:39:20.799Z,1.90
2023-09-27T12:42:05.459Z,1.40
2023-09-27T12:44:51.806Z,2.38
2023-09-27T12:47:36.305Z,1.73
2023-09-27T12:50:25.331Z,2.20
2023-09-27T12:53:09.598Z,2.13
2023-09-27T12:55:53.618Z,1.88
2023-09-27T12:58:37.720Z,1.67
2023-09-27T13:01:23.142Z,1.90
2023-09-27T13:04:08.362Z,2.65
2023-09-27T13:06:53.065Z,1.73
2023-09-27T13:09:37.429Z,2.33
2023-09-27T13:12:21.488Z,1.80
2023-09-27T13:15:07.156Z,2.30
2023-09-27T13:17:52.759Z,1.98
2023-09-27T13:20:36.938Z,2.10
2023-09-27T13:23:21.192Z,2.08
2023-09-27T13:26:05.566Z,2.00
2023-09-27T13:28:49.688Z,1.90
2023-09-27T13:31:34.848Z,1.95
2023-09-27T13:34:20.541Z,2.00
2023-09-27T13:37:04.985Z,2.30
2023-09-27T13:39:49.215Z,1.77
2023-09-27T13:42:34.000Z,2.40
2023-09-27T13:45:18.400Z,2.10
2023-09-27T13:48:02.962Z,2.00
2023-09-27T13:50:48.935Z,1.98
2023-09-27T13:53:33.277Z,1.98
2023-09-27T13:56:17.529Z,1.88
2023-09-27T13:59:01.650Z,2.38
2023-09-27T14:01:45.772Z,2.25
2023-09-27T14:04:29.780Z,2.58
2023-09-27T14:07:15.423Z,2.67
2023-09-27T14:10:00.201Z,1.98
2023-09-27T14:12:44.696Z,2.30
2023-09-27T14:15:28.809Z,1.63
2023-09-27T14:18:13.162Z,2.20
2023-09-27T14:20:57.341Z,2.35
2023-09-27T14:23:44.356Z,2.25
2023-09-27T14:26:28.669Z,2.40
2023-09-27T14:29:22.260Z,2.13
2023-09-27T14:32:18.369Z,2.08
2023-09-27T14:35:02.791Z,2.63
2023-09-27T14:37:47.989Z,2.28
2023-09-27T14:40:33.563Z,2.33
2023-09-27T14:43:19.134Z,2.63
2023-09-27T14:46:03.275Z,2.50
2023-09-27T14:48:47.596Z,2.17
2023-09-27T14:51:31.707Z,2.05
2023-09-27T14:54:16.242Z,2.50
2023-09-27T14:57:01.850Z,2.30
2023-09-27T14:59:46.281Z,2.55
2023-09-27T15:02:32.389Z,1.80
2023-09-27T15:05:16.872Z,2.40
2023-09-27T15:08:03.430Z,2.60
2023-09-27T15:10:47.699Z,2.40
2023-09-27T15:13:35.270Z,2.47
2023-09-27T15:16:20.630Z,2.33
2023-09-27T15:19:05.223Z,2.47
2023-09-27T15:21:49.834Z,2.47
2023-09-27T15:24:40.969Z,2.28
2023-09-27T15:27:27.518Z,2.40
2023-09-27T15:30:15.788Z,2.80
2023-09-27T15:33:00.164Z,2.65
2023-09-27T15:35:59.750Z,2.75
2023-09-27T15:38:46.410Z,2.85
2023-09-27T15:41:31.382Z,2.13
2023-09-27T15:44:15.688Z,3.03
2023-09-27T15:47:01.601Z,2.83
2023-09-27T15:49:48.379Z,3.13
2023-09-27T15:52:36.717Z,3.53
2023-09-27T15:55:28.204Z,3.00
2023-09-27T15:58:14.032Z,2.38
2023-09-27T16:00:58.484Z,2.58
2023-09-27T16:03:44.183Z,3.35
2023-09-27T16:06:30.900Z,2.97
2023-09-27T16:09:16.824Z,4.10
2023-09-27T16:12:03.361Z,3.63
2023-09-27T16:14:47.473Z,3.22
2023-09-27T16:17:31.627Z,3.53
2023-09-27T16:20:17.506Z,3.88
2023-09-27T16:23:01.775Z,3.38
2023-09-27T16:25:49.950Z,3.53
2023-09-27T16:28:34.553Z,3.83
2023-09-27T16:31:22.609Z,3.47
2023-09-27T16:34:07.047Z,3.42
2023-09-27T16:36:53.992Z,3.60
2023-09-27T16:39:38.472Z,3.72
2023-09-27T16:42:25.904Z,4.20
2023-09-27T16:45:11.669Z,4.18
2023-09-27T16:47:56.177Z,3.33
2023-09-27T16:50:42.034Z,4.43
2023-09-27T16:53:29.406Z,4.30
2023-09-27T16:56:13.946Z,4.30
2023-09-27T16:58:58.325Z,4.63
2023-09-27T17:01:42.501Z,3.95
2023-09-27T17:04:29.707Z,3.78
2023-09-27T17:07:26.707Z,3.80
2023-09-27T17:10:13.575Z,3.67
2023-09-27T17:12:58.015Z,3.35
2023-09-27T17:15:46.986Z,4.07
2023-09-27T17:18:33.596Z,3.72
2023-09-27T17:21:18.384Z,4.13
2023-09-27T17:24:02.764Z,4.53
2023-09-27T17:26:50.544Z,4.00
2023-09-27T17:29:35.406Z,3.45
2023-09-27T17:32:27.184Z,3.25
2023-09-27T17:35:14.393Z,3.53
2023-09-27T17:38:03.098Z,3.65
2023-09-27T17:40:48.987Z,4.13
2023-09-27T17:43:35.916Z,3.75
2023-09-27T17:46:24.032Z,3.28
2023-09-27T17:49:09.557Z,2.78
2023-09-27T17:51:54.143Z,3.75
2023-09-27T17:54:38.279Z,3.25
2023-09-27T17:57:22.372Z,3.25
2023-09-27T18:00:10.034Z,3.15
2023-09-27T18:02:54.572Z,2.13
2023-09-27T18:05:39.192Z,3.13
2023-09-27T18:08:24.099Z,3.22
2023-09-27T18:11:10.182Z,3.70
2023-09-27T18:13:54.806Z,3.22
2023-09-27T18:16:41.533Z,2.40
2023-09-27T18:19:26.061Z,3.08
2023-09-27T18:22:10.515Z,2.95
2023-09-27T18:24:55.446Z,2.60
2023-09-27T18:27:40.098Z,2.40
2023-09-27T18:30:24.640Z,2.50
2023-09-27T18:33:10.482Z,2.15
2023-09-27T18:35:55.058Z,2.75
2023-09-27T18:38:39.421Z,2.78
2023-09-27T18:41:23.933Z,2.30
2023-09-27T18:44:08.995Z,2.85
2023-09-27T18:46:53.892Z,2.67
2023-09-27T18:49:40.336Z,2.05
2023-09-27T18:52:24.808Z,2.22
2023-09-27T18:55:10.652Z,2.10
2023-09-27T18:57:55.313Z,2.70
2023-09-27T19:00:39.815Z,2.88
2023-09-27T19:03:25.440Z,2.60
2023-09-27T19:06:15.853Z,2.08
2023-09-27T19:09:03.734Z,2.22
2023-09-27T19:11:49.314Z,2.70
2023-09-27T19:14:33.575Z,2.15
2023-09-27T19:17:20.436Z,2.10
2023-09-27T19:20:06.809Z,2.38
2023-09-27T19:22:54.582Z,2.75
2023-09-27T19:25:39.549Z,2.08
2023-09-27T19:28:28.576Z,2.20
2023-09-27T19:31:13.340Z,2.60
2023-09-27T19:33:59.226Z,2.60
2023-09-27T19:36:43.830Z,2.58
2023-09-27T19:39:32.820Z,2.55
2023-09-27T19:42:19.543Z,2.58
2023-09-27T19:45:06.798Z,2.60
2023-09-27T19:47:51.475Z,2.60
2023-09-27T19:50:36.427Z,2.60
2023-09-27T19:53:20.915Z,3.22
2023-09-27T19:56:09.852Z,2.13
2023-09-27T19:58:55.881Z,2.30
2023-09-27T20:01:40.797Z,2.50
2023-09-27T20:04:26.031Z,2.38
2023-09-27T20:07:10.466Z,2.40
2023-09-27T20:09:55.460Z,2.40
2023-09-27T20:12:41.014Z,2.17
2023-09-27T20:15:25.201Z,2.35
2023-09-27T20:18:09.134Z,2.50
2023-09-27T20:20:53.225Z,2.97
2023-09-27T20:23:37.100Z,2.58
2023-09-27T20:26:21.133Z,2.70
2023-09-27T20:29:06.786Z,2.75
2023-09-27T20:31:51.126Z,2.60
2023-09-27T20:34:35.212Z,2.83
2023-09-27T20:37:19.152Z,2.67
2023-09-27T20:40:03.139Z,2.45
2023-09-27T20:42:48.358Z,2.85
2023-09-27T20:45:34.064Z,2.47
2023-09-27T20:48:18.204Z,3.17
2023-09-27T20:51:02.174Z,2.97
2023-09-27T20:53:46.122Z,2.50
2023-09-27T20:56:30.118Z,2.90
2023-09-27T20:59:14.127Z,2.63
2023-09-27T21:01:59.691Z,2.28
2023-09-27T21:04:43.654Z,2.92
2023-09-27T21:07:27.506Z,3.45
2023-09-27T21:10:11.734Z,3.08
2023-09-27T21:12:55.912Z,2.80
2023-09-27T21:15:40.767Z,3.72
2023-09-27T21:18:26.534Z,3.47
2023-09-27T21:21:10.518Z,3.83
2023-09-27T21:23:54.861Z,4.20
2023-09-27T21:26:41.420Z,4.13
2023-09-27T21:29:26.516Z,4.43
2023-09-27T21:32:11.142Z,3.42
2023-09-27T21:34:56.464Z,2.78
2023-09-27T21:37:40.943Z,3.70
2023-09-27T21:40:25.352Z,4.13
2023-09-27T21:43:09.275Z,2.83
2023-09-27T21:45:53.279Z,3.38
2023-09-27T21:48:37.454Z,3.20
2023-09-27T21:51:22.739Z,3.30
2023-09-27T21:54:06.952Z,3.03
2023-09-27T21:56:50.873Z,3.05
2023-09-27T21:59:34.834Z,3.33
2023-09-27T22:02:19.054Z,2.53
2023-09-27T22:05:03.771Z,2.70
2023-09-27T22:07:49.308Z,3.25
2023-09-27T22:10:36.037Z,3.55
2023-09-27T22:13:29.651Z,3.10
2023-09-27T22:16:13.540Z,4.25
2023-09-27T22:19:02.154Z,4.50
2023-09-27T22:21:47.513Z,3.53
2023-09-27T22:24:33.223Z,3.42
2023-09-27T22:27:17.558Z,5.60
2023-09-27T22:30:02.130Z,5.70
2023-09-27T22:32:47.592Z,4.07
2023-09-27T22:35:32.005Z,5.60
2023-09-27T22:38:16.527Z,4.85
2023-09-27T22:41:01.779Z,4.13
2023-09-27T22:43:46.364Z,4.53
2023-09-27T22:46:30.305Z,4.32
2023-09-27T22:49:14.226Z,4.38
2023-09-27T22:51:58.288Z,5.50
2023-09-27T22:54:42.269Z,4.57
2023-09-27T22:57:29.238Z,4.55
2023-09-27T23:00:14.048Z,3.90
2023-09-27T23:02:59.177Z,4.55
2023-09-27T23:05:45.468Z,4.57
2023-09-27T23:08:30.875Z,4.45
2023-09-27T23:11:14.751Z,4.95
2023-09-27T23:14:00.294Z,5.10
2023-09-27T23:16:47.085Z,4.90
2023-09-27T23:19:32.694Z,4.05
2023-09-27T23:22:17.290Z,3.88
2023-09-27T23:25:33.970Z,4.90
2023-09-27T23:28:18.779Z,3.92
2023-09-27T23:31:09.558Z,5.10
2023-09-27T23:33:54.839Z,4.90
2023-09-27T23:36:40.420Z,4.50
2023-09-27T23:39:23.308Z,4.70
2023-09-27T23:42:22.965Z,5.82
2023-09-27T23:45:10.650Z,4.22
2023-09-27T23:47:57.534Z,4.38
2023-09-27T23:50:42.789Z,4.43
2023-09-27T23:53:26.622Z,3.50
2023-09-27T23:56:11.043Z,4.03
2023-09-27T23:58:58.417Z,3.80
